Terminal Aerodrome Forecast
Issued by NWS

Home | Current Version | Previous Version | Text Only | Print | Product List | Glossary Off
Versions: 1 2 3 4 5 6 7 8 9 10 11 12 13 14 15

000
FTUS43 KICT 211100 RRA
TAFCNU
TAF
KCNU 211142Z 2112/2212 15004KT 5SM -RA BKN022
      TEMPO 2112/2115 P6SM NSW SCT025 OVC100
     FM211500 22004KT P6SM VCSH OVC025
     FM211700 19007KT P6SM OVC035
     FM212000 29007KT P6SM SCT050 BKN150
     FM212300 36009KT P6SM SKC=

USA.gov is the U.S. government's official web portal to all federal, state and local government web resources and services.